sensor_id;sensor_type;location;lat;lon;timestamp;P1;durP1;ratioP1;P2;durP2;ratioP2
3417;SDS011;68007;51.312;12.372;2023-07-20T00:00:19;4.30;;;2.80;;
3417;SDS011;68007;51.312;12.372;2023-07-20T00:02:49;4.07;;;2.30;;
3417;SDS011;68007;51.312;12.372;2023-07-20T00:05:19;4.77;;;3.03;;
3417;SDS011;68007;51.312;12.372;2023-07-20T00:07:47;7.23;;;3.27;;
3417;SDS011;68007;51.312;12.372;2023-07-20T00:10:17;4.50;;;2.83;;
3417;SDS011;68007;51.312;12.372;2023-07-20T00:12:45;5.50;;;2.73;;
3417;SDS011;68007;51.312;12.372;2023-07-20T00:15:13;5.33;;;2.40;;
3417;SDS011;68007;51.312;12.372;2023-07-20T00:17:40;5.43;;;2.37;;
3417;SDS011;68007;51.312;12.372;2023-07-20T00:20:08;3.30;;;3.00;;
3417;SDS011;68007;51.312;12.372;2023-07-20T00:22:38;4.23;;;2.33;;
3417;SDS011;68007;51.312;12.372;2023-07-20T00:25:06;8.07;;;3.10;;
3417;SDS011;68007;51.312;12.372;2023-07-20T00:27:34;4.13;;;2.90;;
3417;SDS011;68007;51.312;12.372;2023-07-20T00:30:01;5.03;;;3.00;;
3417;SDS011;68007;51.312;12.372;2023-07-20T00:32:30;6.23;;;3.33;;
3417;SDS011;68007;51.312;12.372;2023-07-20T00:34:57;6.40;;;3.07;;
3417;SDS011;68007;51.312;12.372;2023-07-20T00:37:25;4.40;;;2.60;;
3417;SDS011;68007;51.312;12.372;2023-07-20T00:39:54;5.13;;;3.20;;
3417;SDS011;68007;51.312;12.372;2023-07-20T00:42:22;6.47;;;3.10;;
3417;SDS011;68007;51.312;12.372;2023-07-20T00:44:50;6.57;;;3.13;;
3417;SDS011;68007;51.312;12.372;2023-07-20T00:47:17;8.97;;;2.60;;
3417;SDS011;68007;51.312;12.372;2023-07-20T00:49:45;5.63;;;3.47;;
3417;SDS011;68007;51.312;12.372;2023-07-20T00:52:13;7.90;;;2.97;;
3417;SDS011;68007;51.312;12.372;2023-07-20T00:54:41;3.80;;;3.03;;
3417;SDS011;68007;51.312;12.372;2023-07-20T00:57:11;5.57;;;2.60;;
3417;SDS011;68007;51.312;12.372;2023-07-20T00:59:41;7.03;;;3.27;;
3417;SDS011;68007;51.312;12.372;2023-07-20T01:02:08;4.53;;;2.60;;
3417;SDS011;68007;51.312;12.372;2023-07-20T01:04:36;3.30;;;2.10;;
3417;SDS011;68007;51.312;12.372;2023-07-20T01:07:06;5.80;;;2.57;;
3417;SDS011;68007;51.312;12.372;2023-07-20T01:09:39;4.73;;;2.33;;
3417;SDS011;68007;51.312;12.372;2023-07-20T01:12:18;5.20;;;3.00;;
3417;SDS011;68007;51.312;12.372;2023-07-20T01:14:52;4.67;;;2.50;;
3417;SDS011;68007;51.312;12.372;2023-07-20T01:17:20;6.40;;;2.40;;
3417;SDS011;68007;51.312;12.372;2023-07-20T01:19:47;4.60;;;2.87;;
3417;SDS011;68007;51.312;12.372;2023-07-20T01:22:19;3.70;;;2.30;;
3417;SDS011;68007;51.312;12.372;2023-07-20T01:25:11;5.60;;;2.77;;
3417;SDS011;68007;51.312;12.372;2023-07-20T01:27:54;3.50;;;2.20;;
3417;SDS011;68007;51.312;12.372;2023-07-20T01:30:55;4.57;;;2.47;;
3417;SDS011;68007;51.312;12.372;2023-07-20T01:33:28;5.10;;;2.50;;
3417;SDS011;68007;51.312;12.372;2023-07-20T01:35:58;3.33;;;2.27;;
3417;SDS011;68007;51.312;12.372;2023-07-20T01:38:27;9.03;;;2.57;;
3417;SDS011;68007;51.312;12.372;2023-07-20T01:40:55;2.97;;;2.67;;
3417;SDS011;68007;51.312;12.372;2023-07-20T01:43:24;4.17;;;2.07;;
3417;SDS011;68007;51.312;12.372;2023-07-20T01:45:52;4.23;;;2.20;;
3417;SDS011;68007;51.312;12.372;2023-07-20T01:48:19;4.20;;;2.40;;
3417;SDS011;68007;51.312;12.372;2023-07-20T01:50:48;3.63;;;2.10;;
3417;SDS011;68007;51.312;12.372;2023-07-20T01:53:16;3.77;;;2.60;;
3417;SDS011;68007;51.312;12.372;2023-07-20T01:55:43;3.50;;;2.87;;
3417;SDS011;68007;51.312;12.372;2023-07-20T01:58:11;3.73;;;2.70;;
3417;SDS011;68007;51.312;12.372;2023-07-20T02:00:38;7.93;;;2.57;;
3417;SDS011;68007;51.312;12.372;2023-07-20T02:03:06;2.90;;;1.97;;
3417;SDS011;68007;51.312;12.372;2023-07-20T02:05:33;2.73;;;2.20;;
3417;SDS011;68007;51.312;12.372;2023-07-20T02:08:02;5.33;;;2.57;;
3417;SDS011;68007;51.312;12.372;2023-07-20T02:10:30;4.00;;;2.80;;
3417;SDS011;68007;51.312;12.372;2023-07-20T02:12:57;5.00;;;2.60;;
3417;SDS011;68007;51.312;12.372;2023-07-20T02:15:25;4.87;;;2.60;;
3417;SDS011;68007;51.312;12.372;2023-07-20T02:17:53;7.80;;;2.70;;
3417;SDS011;68007;51.312;12.372;2023-07-20T02:20:20;6.13;;;3.53;;
3417;SDS011;68007;51.312;12.372;2023-07-20T02:22:48;5.87;;;3.53;;
3417;SDS011;68007;51.312;12.372;2023-07-20T02:25:16;4.80;;;3.23;;
3417;SDS011;68007;51.312;12.372;2023-07-20T02:27:43;5.07;;;2.80;;
3417;SDS011;68007;51.312;12.372;2023-07-20T02:30:11;12.90;;;2.83;;
3417;SDS011;68007;51.312;12.372;2023-07-20T02:32:39;5.83;;;3.00;;
3417;SDS011;68007;51.312;12.372;2023-07-20T02:35:10;4.73;;;2.83;;
3417;SDS011;68007;51.312;12.372;2023-07-20T02:37:37;6.07;;;2.70;;
3417;SDS011;68007;51.312;12.372;2023-07-20T02:40:05;5.20;;;2.67;;
3417;SDS011;68007;51.312;12.372;2023-07-20T02:42:35;6.33;;;2.90;;
3417;SDS011;68007;51.312;12.372;2023-07-20T02:45:03;6.40;;;3.40;;
3417;SDS011;68007;51.312;12.372;2023-07-20T02:47:32;7.40;;;2.97;;
3417;SDS011;68007;51.312;12.372;2023-07-20T02:49:59;5.03;;;3.10;;
3417;SDS011;68007;51.312;12.372;2023-07-20T02:52:27;3.83;;;2.93;;
3417;SDS011;68007;51.312;12.372;2023-07-20T02:54:55;3.27;;;2.70;;
3417;SDS011;68007;51.312;12.372;2023-07-20T02:57:23;6.83;;;3.00;;
3417;SDS011;68007;51.312;12.372;2023-07-20T02:59:52;4.97;;;3.27;;
3417;SDS011;68007;51.312;12.372;2023-07-20T03:02:19;9.27;;;3.10;;
3417;SDS011;68007;51.312;12.372;2023-07-20T03:04:47;5.90;;;3.53;;
3417;SDS011;68007;51.312;12.372;2023-07-20T03:07:14;19.63;;;3.33;;
3417;SDS011;68007;51.312;12.372;2023-07-20T03:09:42;6.23;;;3.03;;
3417;SDS011;68007;51.312;12.372;2023-07-20T03:12:10;3.70;;;3.10;;
3417;SDS011;68007;51.312;12.372;2023-07-20T03:14:37;5.43;;;3.20;;
3417;SDS011;68007;51.312;12.372;2023-07-20T03:17:06;4.63;;;2.97;;
3417;SDS011;68007;51.312;12.372;2023-07-20T03:19:34;7.27;;;3.63;;
3417;SDS011;68007;51.312;12.372;2023-07-20T03:22:01;6.40;;;3.60;;
3417;SDS011;68007;51.312;12.372;2023-07-20T03:24:29;6.57;;;3.20;;
3417;SDS011;68007;51.312;12.372;2023-07-20T03:26:56;11.20;;;3.97;;
3417;SDS011;68007;51.312;12.372;2023-07-20T03:29:24;6.93;;;3.40;;
3417;SDS011;68007;51.312;12.372;2023-07-20T03:31:51;10.50;;;3.40;;
3417;SDS011;68007;51.312;12.372;2023-07-20T03:34:20;6.50;;;3.60;;
3417;SDS011;68007;51.312;12.372;2023-07-20T03:36:47;5.53;;;3.30;;
3417;SDS011;68007;51.312;12.372;2023-07-20T03:39:15;7.63;;;3.20;;
3417;SDS011;68007;51.312;12.372;2023-07-20T03:41:42;2.90;;;2.60;;
3417;SDS011;68007;51.312;12.372;2023-07-20T03:44:10;4.77;;;3.03;;
3417;SDS011;68007;51.312;12.372;2023-07-20T03:46:37;11.00;;;3.90;;
3417;SDS011;68007;51.312;12.372;2023-07-20T03:49:05;5.00;;;3.13;;
3417;SDS011;68007;51.312;12.372;2023-07-20T03:51:35;8.90;;;3.67;;
3417;SDS011;68007;51.312;12.372;2023-07-20T03:54:03;8.03;;;3.73;;
3417;SDS011;68007;51.312;12.372;2023-07-20T03:56:30;6.80;;;3.37;;
3417;SDS011;68007;51.312;12.372;2023-07-20T03:59:01;9.00;;;3.93;;
3417;SDS011;68007;51.312;12.372;2023-07-20T04:01:28;5.00;;;3.00;;
3417;SDS011;68007;51.312;12.372;2023-07-20T04:03:56;11.70;;;3.30;;
3417;SDS011;68007;51.312;12.372;2023-07-20T04:06:23;7.30;;;3.77;;
3417;SDS011;68007;51.312;12.372;2023-07-20T04:08:52;6.70;;;2.77;;
3417;SDS011;68007;51.312;12.372;2023-07-20T04:11:19;7.83;;;3.23;;
3417;SDS011;68007;51.312;12.372;2023-07-20T04:13:47;9.37;;;3.60;;
3417;SDS011;68007;51.312;12.372;2023-07-20T04:16:14;4.50;;;2.97;;
3417;SDS011;68007;51.312;12.372;2023-07-20T04:18:42;5.83;;;3.20;;
3417;SDS011;68007;51.312;12.372;2023-07-20T04:21:10;7.83;;;3.20;;
3417;SDS011;68007;51.312;12.372;2023-07-20T04:23:37;4.00;;;2.30;;
3417;SDS011;68007;51.312;12.372;2023-07-20T04:26:06;2.83;;;2.60;;
3417;SDS011;68007;51.312;12.372;2023-07-20T04:28:33;6.90;;;3.40;;
3417;SDS011;68007;51.312;12.372;2023-07-20T04:31:09;5.17;;;3.20;;
3417;SDS011;68007;51.312;12.372;2023-07-20T04:33:37;4.43;;;3.10;;
3417;SDS011;68007;51.312;12.372;2023-07-20T04:36:04;6.13;;;3.00;;
3417;SDS011;68007;51.312;12.372;2023-07-20T04:38:32;5.80;;;3.03;;
3417;SDS011;68007;51.312;12.372;2023-07-20T04:41:00;7.90;;;3.50;;
3417;SDS011;68007;51.312;12.372;2023-07-20T04:43:29;4.57;;;3.40;;
3417;SDS011;68007;51.312;12.372;2023-07-20T04:45:57;9.80;;;3.30;;
3417;SDS011;68007;51.312;12.372;2023-07-20T04:48:25;8.37;;;2.90;;
3417;SDS011;68007;51.312;12.372;2023-07-20T04:50:52;3.90;;;3.33;;
3417;SDS011;68007;51.312;12.372;2023-07-20T04:53:21;4.43;;;2.97;;
3417;SDS011;68007;51.312;12.372;2023-07-20T04:55:49;7.20;;;3.60;;
3417;SDS011;68007;51.312;12.372;2023-07-20T04:58:20;9.37;;;3.47;;
3417;SDS011;68007;51.312;12.372;2023-07-20T05:00:51;8.70;;;3.40;;
3417;SDS011;68007;51.312;12.372;2023-07-20T05:03:19;7.50;;;3.40;;
3417;SDS011;68007;51.312;12.372;2023-07-20T05:05:46;7.83;;;3.13;;
3417;SDS011;68007;51.312;12.372;2023-07-20T05:08:14;4.77;;;2.97;;
3417;SDS011;68007;51.312;12.372;2023-07-20T05:10:42;6.40;;;3.23;;
3417;SDS011;68007;51.312;12.372;2023-07-20T05:13:09;5.93;;;3.43;;
3417;SDS011;68007;51.312;12.372;2023-07-20T05:15:37;10.07;;;3.90;;
3417;SDS011;68007;51.312;12.372;2023-07-20T05:18:06;5.03;;;3.10;;
3417;SDS011;68007;51.312;12.372;2023-07-20T05:20:33;6.90;;;3.33;;
3417;SDS011;68007;51.312;12.372;2023-07-20T05:23:01;5.03;;;3.53;;
3417;SDS011;68007;51.312;12.372;2023-07-20T05:25:28;10.13;;;3.50;;
3417;SDS011;68007;51.312;12.372;2023-07-20T05:27:56;10.03;;;3.07;;
3417;SDS011;68007;51.312;12.372;2023-07-20T05:30:23;8.83;;;3.27;;
3417;SDS011;68007;51.312;12.372;2023-07-20T05:32:51;8.90;;;3.67;;
3417;SDS011;68007;51.312;12.372;2023-07-20T05:35:21;5.57;;;3.53;;
3417;SDS011;68007;51.312;12.372;2023-07-20T05:37:49;11.37;;;3.57;;
3417;SDS011;68007;51.312;12.372;2023-07-20T05:40:16;9.53;;;3.47;;
3417;SDS011;68007;51.312;12.372;2023-07-20T05:42:45;5.73;;;2.97;;
3417;SDS011;68007;51.312;12.372;2023-07-20T05:45:13;10.30;;;3.40;;
3417;SDS011;68007;51.312;12.372;2023-07-20T05:47:41;4.47;;;2.80;;
3417;SDS011;68007;51.312;12.372;2023-07-20T05:50:09;4.43;;;2.97;;
3417;SDS011;68007;51.312;12.372;2023-07-20T05:52:39;7.00;;;3.10;;
3417;SDS011;68007;51.312;12.372;2023-07-20T05:55:07;7.23;;;3.50;;
3417;SDS011;68007;51.312;12.372;2023-07-20T05:57:35;11.93;;;3.40;;
3417;SDS011;68007;51.312;12.372;2023-07-20T06:00:06;5.63;;;3.20;;
3417;SDS011;68007;51.312;12.372;2023-07-20T06:02:34;5.73;;;3.63;;
3417;SDS011;68007;51.312;12.372;2023-07-20T06:05:02;5.90;;;3.80;;
3417;SDS011;68007;51.312;12.372;2023-07-20T06:07:29;6.67;;;3.93;;
3417;SDS011;68007;51.312;12.372;2023-07-20T06:09:59;7.53;;;3.47;;
3417;SDS011;68007;51.312;12.372;2023-07-20T06:12:26;7.63;;;3.70;;
3417;SDS011;68007;51.312;12.372;2023-07-20T06:14:54;7.97;;;3.13;;
3417;SDS011;68007;51.312;12.372;2023-07-20T06:17:22;12.53;;;4.07;;
3417;SDS011;68007;51.312;12.372;2023-07-20T06:19:49;13.50;;;4.77;;
3417;SDS011;68007;51.312;12.372;2023-07-20T06:22:17;4.70;;;3.50;;
3417;SDS011;68007;51.312;12.372;2023-07-20T06:24:44;4.70;;;3.87;;
3417;SDS011;68007;51.312;12.372;2023-07-20T06:27:13;5.90;;;3.63;;
3417;SDS011;68007;51.312;12.372;2023-07-20T06:29:41;5.07;;;3.83;;
3417;SDS011;68007;51.312;12.372;2023-07-20T06:32:08;11.80;;;3.40;;
3417;SDS011;68007;51.312;12.372;2023-07-20T06:34:36;6.70;;;3.63;;
3417;SDS011;68007;51.312;12.372;2023-07-20T06:37:04;4.67;;;4.03;;
3417;SDS011;68007;51.312;12.372;2023-07-20T06:39:31;9.20;;;4.30;;
3417;SDS011;68007;51.312;12.372;2023-07-20T06:41:59;6.50;;;4.10;;
3417;SDS011;68007;51.312;12.372;2023-07-20T06:44:28;5.90;;;4.20;;
3417;SDS011;68007;51.312;12.372;2023-07-20T06:46:55;7.23;;;3.70;;
3417;SDS011;68007;51.312;12.372;2023-07-20T06:49:26;4.90;;;4.13;;
3417;SDS011;68007;51.312;12.372;2023-07-20T06:51:54;8.00;;;3.97;;
3417;SDS011;68007;51.312;12.372;2023-07-20T06:54:21;7.53;;;4.30;;
3417;SDS011;68007;51.312;12.372;2023-07-20T06:56:49;9.17;;;5.37;;
3417;SDS011;68007;51.312;12.372;2023-07-20T06:59:17;5.17;;;4.67;;
3417;SDS011;68007;51.312;12.372;2023-07-20T07:01:45;7.67;;;4.23;;
3417;SDS011;68007;51.312;12.372;2023-07-20T07:04:13;6.77;;;3.90;;
3417;SDS011;68007;51.312;12.372;2023-07-20T07:06:40;7.30;;;4.60;;
3417;SDS011;68007;51.312;12.372;2023-07-20T07:09:08;7.43;;;3.70;;
3417;SDS011;68007;51.312;12.372;2023-07-20T07:11:36;4.27;;;3.40;;
3417;SDS011;68007;51.312;12.372;2023-07-20T07:14:03;6.73;;;4.00;;
3417;SDS011;68007;51.312;12.372;2023-07-20T07:16:31;9.80;;;3.60;;
3417;SDS011;68007;51.312;12.372;2023-07-20T07:19:00;5.20;;;3.67;;
3417;SDS011;68007;51.312;12.372;2023-07-20T07:21:27;5.60;;;4.07;;
3417;SDS011;68007;51.312;12.372;2023-07-20T07:23:55;5.83;;;3.77;;
3417;SDS011;68007;51.312;12.372;2023-07-20T07:26:25;3.97;;;3.40;;
3417;SDS011;68007;51.312;12.372;2023-07-20T07:28:52;4.70;;;3.70;;
3417;SDS011;68007;51.312;12.372;2023-07-20T07:31:20;8.73;;;3.63;;
3417;SDS011;68007;51.312;12.372;2023-07-20T07:33:49;8.20;;;4.30;;
3417;SDS011;68007;51.312;12.372;2023-07-20T07:36:17;6.37;;;3.80;;
3417;SDS011;68007;51.312;12.372;2023-07-20T07:38:45;4.60;;;3.63;;
3417;SDS011;68007;51.312;12.372;2023-07-20T07:41:13;3.70;;;3.40;;
3417;SDS011;68007;51.312;12.372;2023-07-20T07:43:41;3.67;;;3.33;;
3417;SDS011;68007;51.312;12.372;2023-07-20T07:46:08;7.13;;;3.20;;
3417;SDS011;68007;51.312;12.372;2023-07-20T07:48:36;3.97;;;2.77;;
3417;SDS011;68007;51.312;12.372;2023-07-20T07:51:03;7.07;;;3.53;;
3417;SDS011;68007;51.312;12.372;2023-07-20T07:53:32;4.20;;;3.47;;
3417;SDS011;68007;51.312;12.372;2023-07-20T07:56:01;6.40;;;3.20;;
3417;SDS011;68007;51.312;12.372;2023-07-20T07:58:29;5.40;;;2.93;;
3417;SDS011;68007;51.312;12.372;2023-07-20T08:00:57;3.90;;;3.03;;
3417;SDS011;68007;51.312;12.372;2023-07-20T08:03:24;2.90;;;2.70;;
3417;SDS011;68007;51.312;12.372;2023-07-20T08:05:53;7.23;;;3.70;;
3417;SDS011;68007;51.312;12.372;2023-07-20T08:08:21;4.00;;;3.10;;
3417;SDS011;68007;51.312;12.372;2023-07-20T08:10:50;4.80;;;2.97;;
3417;SDS011;68007;51.312;12.372;2023-07-20T08:13:19;4.73;;;3.10;;
3417;SDS011;68007;51.312;12.372;2023-07-20T08:15:48;5.83;;;2.10;;
3417;SDS011;68007;51.312;12.372;2023-07-20T08:18:17;3.93;;;3.13;;
3417;SDS011;68007;51.312;12.372;2023-07-20T08:20:45;3.07;;;2.50;;
3417;SDS011;68007;51.312;12.372;2023-07-20T08:23:12;2.90;;;2.70;;
3417;SDS011;68007;51.312;12.372;2023-07-20T08:25:40;5.07;;;2.97;;
3417;SDS011;68007;51.312;12.372;2023-07-20T08:28:11;4.50;;;3.20;;
3417;SDS011;68007;51.312;12.372;2023-07-20T08:30:40;4.20;;;3.30;;
3417;SDS011;68007;51.312;12.372;2023-07-20T08:33:09;6.47;;;3.30;;
3417;SDS011;68007;51.312;12.372;2023-07-20T08:35:36;3.97;;;3.10;;
3417;SDS011;68007;51.312;12.372;2023-07-20T08:38:04;3.40;;;2.60;;
3417;SDS011;68007;51.312;12.372;2023-07-20T08:40:31;4.37;;;3.10;;
3417;SDS011;68007;51.312;12.372;2023-07-20T08:42:59;7.30;;;4.33;;
3417;SDS011;68007;51.312;12.372;2023-07-20T08:45:29;7.73;;;4.60;;
3417;SDS011;68007;51.312;12.372;2023-07-20T08:47:59;7.87;;;5.07;;
3417;SDS011;68007;51.312;12.372;2023-07-20T08:50:28;7.10;;;4.20;;
3417;SDS011;68007;51.312;12.372;2023-07-20T08:52:57;5.37;;;4.13;;
3417;SDS011;68007;51.312;12.372;2023-07-20T08:55:26;4.63;;;3.93;;
3417;SDS011;68007;51.312;12.372;2023-07-20T08:57:54;3.70;;;3.40;;
3417;SDS011;68007;51.312;12.372;2023-07-20T09:00:23;6.73;;;4.20;;
3417;SDS011;68007;51.312;12.372;2023-07-20T09:02:53;4.63;;;2.83;;
3417;SDS011;68007;51.312;12.372;2023-07-20T09:05:21;4.27;;;2.90;;
3417;SDS011;68007;51.312;12.372;2023-07-20T09:07:50;3.20;;;2.90;;
3417;SDS011;68007;51.312;12.372;2023-07-20T09:10:19;4.10;;;3.00;;
3417;SDS011;68007;51.312;12.372;2023-07-20T09:12:47;3.23;;;2.67;;
3417;SDS011;68007;51.312;12.372;2023-07-20T09:15:15;3.30;;;2.60;;
3417;SDS011;68007;51.312;12.372;2023-07-20T09:17:45;3.33;;;2.80;;
3417;SDS011;68007;51.312;12.372;2023-07-20T09:20:15;3.23;;;2.87;;
3417;SDS011;68007;51.312;12.372;2023-07-20T09:22:44;5.70;;;2.60;;
3417;SDS011;68007;51.312;12.372;2023-07-20T09:25:12;3.10;;;2.10;;
3417;SDS011;68007;51.312;12.372;2023-07-20T09:27:41;6.80;;;2.57;;
3417;SDS011;68007;51.312;12.372;2023-07-20T09:30:09;3.60;;;2.43;;
3417;SDS011;68007;51.312;12.372;2023-07-20T09:32:39;3.70;;;3.20;;
3417;SDS011;68007;51.312;12.372;2023-07-20T09:35:19;3.10;;;2.27;;
3417;SDS011;68007;51.312;12.372;2023-07-20T09:37:49;3.53;;;2.87;;
3417;SDS011;68007;51.312;12.372;2023-07-20T09:40:19;3.60;;;2.27;;
3417;SDS011;68007;51.312;12.372;2023-07-20T09:42:47;3.20;;;2.50;;
3417;SDS011;68007;51.312;12.372;2023-07-20T09:45:15;5.30;;;2.67;;
3417;SDS011;68007;51.312;12.372;2023-07-20T09:47:42;4.47;;;2.30;;
3417;SDS011;68007;51.312;12.372;2023-07-20T09:50:10;2.90;;;2.57;;
3417;SDS011;68007;51.312;12.372;2023-07-20T09:52:40;3.13;;;2.10;;
3417;SDS011;68007;51.312;12.372;2023-07-20T09:55:10;5.17;;;2.93;;
3417;SDS011;68007;51.312;12.372;2023-07-20T09:57:38;6.00;;;3.50;;
3417;SDS011;68007;51.312;12.372;2023-07-20T10:00:07;4.03;;;3.30;;
3417;SDS011;68007;51.312;12.372;2023-07-20T10:02:42;7.80;;;3.93;;
3417;SDS011;68007;51.312;12.372;2023-07-20T10:05:11;6.57;;;3.77;;
3417;SDS011;68007;51.312;12.372;2023-07-20T10:07:43;4.57;;;2.90;;
3417;SDS011;68007;51.312;12.372;2023-07-20T10:10:13;2.80;;;2.50;;
3417;SDS011;68007;51.312;12.372;2023-07-20T10:12:43;4.23;;;3.10;;
3417;SDS011;68007;51.312;12.372;2023-07-20T10:15:18;5.43;;;3.47;;
3417;SDS011;68007;51.312;12.372;2023-07-20T10:17:54;8.47;;;2.97;;
3417;SDS011;68007;51.312;12.372;2023-07-20T10:20:29;5.97;;;3.30;;
3417;SDS011;68007;51.312;12.372;2023-07-20T10:23:00;6.23;;;3.67;;
3417;SDS011;68007;51.312;12.372;2023-07-20T10:25:29;4.53;;;3.10;;
3417;SDS011;68007;51.312;12.372;2023-07-20T10:27:57;6.87;;;2.47;;
3417;SDS011;68007;51.312;12.372;2023-07-20T10:30:25;5.30;;;3.57;;
3417;SDS011;68007;51.312;12.372;2023-07-20T10:32:53;6.50;;;3.30;;
3417;SDS011;68007;51.312;12.372;2023-07-20T10:35:21;6.87;;;4.20;;
3417;SDS011;68007;51.312;12.372;2023-07-20T10:37:49;4.33;;;3.90;;
3417;SDS011;68007;51.312;12.372;2023-07-20T10:40:29;4.83;;;3.37;;
3417;SDS011;68007;51.312;12.372;2023-07-20T10:42:59;2.90;;;1.90;;
3417;SDS011;68007;51.312;12.372;2023-07-20T10:45:39;3.57;;;2.20;;
3417;SDS011;68007;51.312;12.372;2023-07-20T10:48:14;1.90;;;1.77;;
3417;SDS011;68007;51.312;12.372;2023-07-20T10:50:45;3.17;;;2.03;;
3417;SDS011;68007;51.312;12.372;2023-07-20T10:53:13;2.03;;;1.77;;
3417;SDS011;68007;51.312;12.372;2023-07-20T10:55:43;2.73;;;2.40;;
3417;SDS011;68007;51.312;12.372;2023-07-20T10:58:12;2.17;;;1.80;;
3417;SDS011;68007;51.312;12.372;2023-07-20T11:00:54;4.73;;;2.33;;
3417;SDS011;68007;51.312;12.372;2023-07-20T11:03:28;4.27;;;2.07;;
3417;SDS011;68007;51.312;12.372;2023-07-20T11:05:57;2.10;;;1.83;;
3417;SDS011;68007;51.312;12.372;2023-07-20T11:08:38;2.10;;;1.90;;
3417;SDS011;68007;51.312;12.372;2023-07-20T11:11:25;3.97;;;2.40;;
3417;SDS011;68007;51.312;12.372;2023-07-20T11:13:55;1.83;;;1.73;;
3417;SDS011;68007;51.312;12.372;2023-07-20T11:16:37;2.37;;;1.70;;
3417;SDS011;68007;51.312;12.372;2023-07-20T11:19:06;4.60;;;2.27;;
3417;SDS011;68007;51.312;12.372;2023-07-20T11:21:43;1.93;;;1.67;;
3417;SDS011;68007;51.312;12.372;2023-07-20T11:24:11;1.97;;;1.60;;
3417;SDS011;68007;51.312;12.372;2023-07-20T11:26:41;4.63;;;2.13;;
3417;SDS011;68007;51.312;12.372;2023-07-20T11:29:11;3.53;;;2.20;;
3417;SDS011;68007;51.312;12.372;2023-07-20T11:31:40;3.40;;;2.20;;
3417;SDS011;68007;51.312;12.372;2023-07-20T11:34:10;1.97;;;1.43;;
3417;SDS011;68007;51.312;12.372;2023-07-20T11:36:39;3.77;;;1.77;;
3417;SDS011;68007;51.312;12.372;2023-07-20T11:39:08;2.20;;;2.00;;
3417;SDS011;68007;51.312;12.372;2023-07-20T11:41:37;2.77;;;1.50;;
3417;SDS011;68007;51.312;12.372;2023-07-20T11:44:07;2.40;;;1.60;;
3417;SDS011;68007;51.312;12.372;2023-07-20T11:46:38;3.30;;;2.23;;
3417;SDS011;68007;51.312;12.372;2023-07-20T11:49:06;2.00;;;1.70;;
3417;SDS011;68007;51.312;12.372;2023-07-20T11:51:34;2.73;;;1.90;;
3417;SDS011;68007;51.312;12.372;2023-07-20T11:54:02;2.60;;;2.20;;
3417;SDS011;68007;51.312;12.372;2023-07-20T11:56:30;3.37;;;2.27;;
3417;SDS011;68007;51.312;12.372;2023-07-20T11:58:58;1.77;;;1.63;;
3417;SDS011;68007;51.312;12.372;2023-07-20T12:01:29;8.40;;;2.03;;
3417;SDS011;68007;51.312;12.372;2023-07-20T12:03:59;3.23;;;2.10;;
3417;SDS011;68007;51.312;12.372;2023-07-20T12:06:28;2.00;;;1.80;;
3417;SDS011;68007;51.312;12.372;2023-07-20T12:08:57;5.03;;;2.20;;
3417;SDS011;68007;51.312;12.372;2023-07-20T12:11:32;3.87;;;2.13;;
3417;SDS011;68007;51.312;12.372;2023-07-20T12:14:00;2.63;;;1.93;;
3417;SDS011;68007;51.312;12.372;2023-07-20T12:16:30;3.40;;;1.70;;
3417;SDS011;68007;51.312;12.372;2023-07-20T12:19:01;1.90;;;1.80;;
3417;SDS011;68007;51.312;12.372;2023-07-20T12:21:29;5.30;;;2.40;;
3417;SDS011;68007;51.312;12.372;2023-07-20T12:23:57;2.17;;;1.80;;
3417;SDS011;68007;51.312;12.372;2023-07-20T12:26:25;3.23;;;2.10;;
3417;SDS011;68007;51.312;12.372;2023-07-20T12:28:53;2.63;;;1.80;;
3417;SDS011;68007;51.312;12.372;2023-07-20T12:31:20;4.20;;;2.43;;
3417;SDS011;68007;51.312;12.372;2023-07-20T12:33:51;2.60;;;2.40;;
3417;SDS011;68007;51.312;12.372;2023-07-20T12:36:21;3.80;;;1.97;;
3417;SDS011;68007;51.312;12.372;2023-07-20T12:38:48;2.73;;;2.13;;
3417;SDS011;68007;51.312;12.372;2023-07-20T12:41:16;3.37;;;1.93;;
3417;SDS011;68007;51.312;12.372;2023-07-20T12:43:44;2.17;;;1.90;;
3417;SDS011;68007;51.312;12.372;2023-07-20T12:46:12;2.23;;;2.00;;
3417;SDS011;68007;51.312;12.372;2023-07-20T12:48:40;1.70;;;1.60;;
3417;SDS011;68007;51.312;12.372;2023-07-20T12:51:11;5.03;;;1.87;;
3417;SDS011;68007;51.312;12.372;2023-07-20T12:53:38;1.73;;;1.30;;
3417;SDS011;68007;51.312;12.372;2023-07-20T12:56:06;1.60;;;1.20;;
3417;SDS011;68007;51.312;12.372;2023-07-20T12:58:33;1.87;;;1.40;;
3417;SDS011;68007;51.312;12.372;2023-07-20T13:01:02;1.30;;;1.20;;
3417;SDS011;68007;51.312;12.372;2023-07-20T13:03:30;3.40;;;1.10;;
3417;SDS011;68007;51.312;12.372;2023-07-20T13:05:57;1.40;;;1.27;;
3417;SDS011;68007;51.312;12.372;2023-07-20T13:08:27;1.40;;;1.30;;
3417;SDS011;68007;51.312;12.372;2023-07-20T13:10:55;3.03;;;1.40;;
3417;SDS011;68007;51.312;12.372;2023-07-20T13:13:22;1.33;;;1.10;;
3417;SDS011;68007;51.312;12.372;2023-07-20T13:15:50;1.27;;;1.17;;
3417;SDS011;68007;51.312;12.372;2023-07-20T13:18:17;1.50;;;1.40;;
3417;SDS011;68007;51.312;12.372;2023-07-20T13:20:45;2.40;;;1.40;;
3417;SDS011;68007;51.312;12.372;2023-07-20T13:23:12;1.30;;;1.10;;
3417;SDS011;68007;51.312;12.372;2023-07-20T13:25:42;5.03;;;1.50;;
3417;SDS011;68007;51.312;12.372;2023-07-20T13:28:09;1.77;;;1.30;;
3417;SDS011;68007;51.312;12.372;2023-07-20T13:30:37;1.97;;;1.50;;
3417;SDS011;68007;51.312;12.372;2023-07-20T13:33:04;1.53;;;1.40;;
3417;SDS011;68007;51.312;12.372;2023-07-20T13:35:32;1.60;;;1.50;;
3417;SDS011;68007;51.312;12.372;2023-07-20T13:37:59;2.30;;;1.50;;
3417;SDS011;68007;51.312;12.372;2023-07-20T13:40:27;1.50;;;1.40;;
3417;SDS011;68007;51.312;12.372;2023-07-20T13:42:55;1.70;;;1.60;;
3417;SDS011;68007;51.312;12.372;2023-07-20T13:45:23;2.33;;;2.17;;
3417;SDS011;68007;51.312;12.372;2023-07-20T13:47:51;4.83;;;1.70;;
3417;SDS011;68007;51.312;12.372;2023-07-20T13:50:18;2.13;;;1.60;;
3417;SDS011;68007;51.312;12.372;2023-07-20T13:52:46;2.20;;;1.60;;
3417;SDS011;68007;51.312;12.372;2023-07-20T13:55:13;2.50;;;2.00;;
3417;SDS011;68007;51.312;12.372;2023-07-20T13:57:41;1.90;;;1.80;;
3417;SDS011;68007;51.312;12.372;2023-07-20T14:00:11;2.10;;;1.90;;
3417;SDS011;68007;51.312;12.372;2023-07-20T14:02:39;2.23;;;2.10;;
3417;SDS011;68007;51.312;12.372;2023-07-20T14:05:07;1.70;;;1.60;;
3417;SDS011;68007;51.312;12.372;2023-07-20T14:07:35;1.63;;;1.53;;
3417;SDS011;68007;51.312;12.372;2023-07-20T14:10:03;1.90;;;1.80;;
3417;SDS011;68007;51.312;12.372;2023-07-20T14:12:31;2.23;;;2.07;;
3417;SDS011;68007;51.312;12.372;2023-07-20T14:14:58;2.00;;;1.90;;
3417;SDS011;68007;51.312;12.372;2023-07-20T14:17:27;1.70;;;1.60;;
3417;SDS011;68007;51.312;12.372;2023-07-20T14:19:55;2.30;;;1.90;;
3417;SDS011;68007;51.312;12.372;2023-07-20T14:22:22;1.60;;;1.50;;
3417;SDS011;68007;51.312;12.372;2023-07-20T14:24:50;1.67;;;1.57;;
3417;SDS011;68007;51.312;12.372;2023-07-20T14:27:17;2.20;;;1.70;;
3417;SDS011;68007;51.312;12.372;2023-07-20T14:29:45;1.73;;;1.63;;
3417;SDS011;68007;51.312;12.372;2023-07-20T14:32:12;4.67;;;2.20;;
3417;SDS011;68007;51.312;12.372;2023-07-20T14:34:41;2.10;;;1.90;;
3417;SDS011;68007;51.312;12.372;2023-07-20T14:37:09;2.00;;;1.80;;
3417;SDS011;68007;51.312;12.372;2023-07-20T14:39:37;2.30;;;1.70;;
3417;SDS011;68007;51.312;12.372;2023-07-20T14:42:05;2.07;;;1.87;;
3417;SDS011;68007;51.312;12.372;2023-07-20T14:44:33;1.70;;;1.60;;
3417;SDS011;68007;51.312;12.372;2023-07-20T14:47:00;2.10;;;1.90;;
3417;SDS011;68007;51.312;12.372;2023-07-20T14:49:28;1.90;;;1.80;;
3417;SDS011;68007;51.312;12.372;2023-07-20T14:51:57;2.10;;;1.90;;
3417;SDS011;68007;51.312;12.372;2023-07-20T14:54:25;1.90;;;1.80;;
3417;SDS011;68007;51.312;12.372;2023-07-20T14:56:52;1.90;;;1.80;;